Strona główna
METAR-TAF:

METAR-TAF

Lotnisko :

Port lotniczy Newquay

Newquay Cornwall, Anglia

Szerokość geograficzna: 50-26N, Długość geograficzna: 005-00W, wysokość: 119 m

Aktualna obserwacja pogody

Raport powstał 31 minut temu, godzina 03:50 UTC
Wiatr 13 kt od wschodnio-południowy wschód
Temperatura 15°C
Wilgotność 63%
Ciśnienie 1032 hPa
Widzialność 10 km lub więcej

METAR: EGHQ 280350Z AUTO 11013KT 9999 NCD 15/08 Q1032

czas: 05:21 (04:21 UTC)

Prognoza

Raport powstał 2 godziny i 29 minut temu, godzina 01:52 UTC
Prognoza ważna od 28 godzina 03 UTC do 28 godzina 12 UTC
Wiatr 12 kt od wschód
Widzialność 10 km lub więcej
Brak chmur poniżej 1500 m i brak chmur cumulonimbus
Prawdopodobieństwo 30% :
Przejściowo
od 28 godzina 07 UTC do 28 godzina 12 UTC
Wiatr 15 kt od wschodnio-południowy wschód w porywach dochodzący do 25 kt

TAF: EGHQ 280152Z 2803/2812 10012KT CAVOK PROB30 TEMPO 2807/2812 12015G25KT

Obserwacja i prognoza pogody dla ponad 4000 lotnisk (raport METAR i TAF).

Dostępne stacje oznaczono żółtymi i czerwonymi punktami na mapie.

Najedź kursorem aby zobaczyć nazwę stacji.

Kliknij aby zobaczyć obserwacje i prognozy pogody.

Aby zmienić mapę: kliknij na zielony przycisk z czarnym krzyżykiem, aby powiększyć; na zielony przycisk z myślnikiem, aby pomniejszyć; na zielone strzałki, aby przejść do map sąsiednich.


METAR-TAF: